Time;durP1;ratioP1;P1;durP2;ratioP2;P2;SDS_P1;SDS_P2;PMS_P1;PMS_P2;Temp;Humidity;BMP_temperature;BMP_pressure;BME280_temperature;BME280_humidity;BME280_pressure;Samples;Min_cycle;Max_cycle;Signal;HPM_P1;HPM_P2
2022/01/14 00:00:00;;;;;;;10.20;6.70;;;;;;;1.08;100.00;98220.57;1757923;81;20980;-55
2022/01/14 00:02:27;;;;;;;9.35;6.40;;;;;;;1.06;100.00;98224.73;1758540;80;20916;-61
2022/01/14 00:04:54;;;;;;;9.10;6.83;;;;;;;1.06;100.00;98241.88;1757712;80;20888;-64
2022/01/14 00:07:21;;;;;;;12.70;6.80;;;;;;;1.07;100.00;98256.70;1757726;81;20841;-71
2022/01/14 00:09:48;;;;;;;10.60;6.83;;;;;;;1.09;100.00;98248.04;1757795;81;21479;-62
2022/01/14 00:12:18;;;;;;;7.85;6.10;;;;;;;1.12;100.00;98259.98;1757639;81;20901;-64
2022/01/14 00:14:55;;;;;;;8.23;6.58;;;;;;;1.12;100.00;98264.75;1757589;80;21256;-67
2022/01/14 00:17:14;;;;;;;7.53;6.35;;;;;;;1.12;100.00;98260.80;1756850;80;20888;-72
2022/01/14 00:19:42;;;;;;;8.93;6.78;;;;;;;1.13;100.00;98251.05;1758183;81;20955;-72
2022/01/14 00:22:13;;;;;;;9.03;6.50;;;;;;;1.13;100.00;98255.79;1757573;80;21081;-72
2022/01/14 00:33:08;;;;;;;8.58;6.25;;;;;;;1.13;100.00;98224.13;1758042;80;21419;-63
2022/01/14 00:35:44;;;;;;;7.42;6.05;;;;;;;1.13;100.00;98228.09;1758172;80;21392;-65
2022/01/14 00:38:12;;;;;;;9.18;6.37;;;;;;;1.12;100.00;98202.75;1757544;81;20920;-65
2022/01/14 00:40:39;;;;;;;10.72;6.90;;;;;;;1.12;100.00;98205.39;1757735;81;20932;-62
2022/01/14 00:43:06;;;;;;;9.90;6.75;;;;;;;1.11;100.00;98211.68;1757646;81;21003;-66
2022/01/14 00:45:33;;;;;;;9.08;6.10;;;;;;;1.10;100.00;98231.20;1757706;81;21415;-62
2022/01/14 00:48:00;;;;;;;9.75;7.12;;;;;;;1.13;100.00;98218.85;1757679;81;21119;-61
2022/01/14 00:50:27;;;;;;;11.50;6.53;;;;;;;1.13;100.00;98220.17;1757611;81;20963;-66
2022/01/14 00:52:53;;;;;;;9.50;6.70;;;;;;;1.13;100.00;98224.13;1757681;81;21420;-65
2022/01/14 00:55:28;;;;;;;8.10;6.85;;;;;;;1.15;100.00;98219.97;1757906;81;20880;-62
2022/01/14 01:00:22;;;;;;;10.82;6.72;;;;;;;1.13;100.00;98208.30;1757654;81;21062;-69
2022/01/14 01:02:49;;;;;;;8.28;6.42;;;;;;;1.15;100.00;98206.78;1757597;81;21518;-69
2022/01/14 01:05:17;;;;;;;9.80;6.83;;;;;;;1.15;100.00;98199.67;1757839;81;20845;-68
2022/01/14 01:07:50;;;;;;;10.10;7.20;;;;;;;1.14;100.00;98191.45;1757633;81;20892;-66
2022/01/14 01:10:16;;;;;;;9.03;6.53;;;;;;;1.13;100.00;98192.47;1757584;80;21431;-66
2022/01/14 01:12:54;;;;;;;9.10;6.72;;;;;;;1.14;100.00;98194.09;1757496;81;21038;-68
2022/01/14 01:15:20;;;;;;;8.97;6.97;;;;;;;1.15;100.00;98191.76;1757713;80;20979;-69
2022/01/14 01:17:47;;;;;;;8.85;6.40;;;;;;;1.15;100.00;98189.63;1757647;81;20991;-71
2022/01/14 01:20:17;;;;;;;7.70;6.12;;;;;;;1.15;100.00;98189.12;1757878;81;20916;-55
2022/01/14 01:22:42;;;;;;;10.50;7.65;;;;;;;1.17;100.00;98192.33;1758611;80;21400;-68
2022/01/14 01:25:14;;;;;;;8.45;6.30;;;;;;;1.15;100.00;98170.65;1757548;80;21103;-73
2022/01/14 01:27:43;;;;;;;8.78;6.97;;;;;;;1.16;100.00;98181.98;1757778;81;20916;-64
2022/01/14 01:30:16;;;;;;;11.85;9.28;;;;;;;1.16;100.00;98195.98;1757805;81;20877;-62
2022/01/14 01:32:47;;;;;;;14.85;9.88;;;;;;;1.15;100.00;98187.80;1757628;81;20873;-69
2022/01/14 01:35:15;;;;;;;11.25;8.53;;;;;;;1.18;100.00;98182.56;1757761;81;20975;-66
2022/01/14 01:37:42;;;;;;;13.65;9.70;;;;;;;1.18;100.00;98171.50;1757636;81;21245;-66
2022/01/14 01:40:10;;;;;;;10.53;9.40;;;;;;;1.17;100.00;98175.18;1757490;80;20956;-61
2022/01/14 01:42:39;;;;;;;16.50;12.30;;;;;;;1.17;100.00;98171.73;1757952;81;21019;-66
2022/01/14 01:45:10;;;;;;;14.75;11.88;;;;;;;1.18;100.00;98178.59;1774517;80;20912;-63
2022/01/14 01:47:37;;;;;;;26.07;16.90;;;;;;;1.19;100.00;98168.34;1758053;80;20928;-70
2022/01/14 01:50:13;;;;;;;19.23;14.70;;;;;;;1.19;100.00;98158.61;1757638;81;21104;-65
2022/01/14 01:52:40;;;;;;;20.55;12.95;;;;;;;1.22;100.00;98165.27;1757762;80;20928;-64
2022/01/14 01:55:08;;;;;;;18.00;14.03;;;;;;;1.23;100.00;98134.69;1757621;80;20999;-62
2022/01/14 01:57:35;;;;;;;12.55;10.30;;;;;;;1.24;100.00;98122.30;1757951;81;20888;-61
2022/01/14 02:00:08;;;;;;;13.08;10.28;;;;;;;1.23;100.00;98112.25;1757659;80;20944;-64
2022/01/14 02:02:37;;;;;;;11.90;8.57;;;;;;;1.24;100.00;98102.00;1758836;80;21094;-70
2022/01/14 02:05:05;;;;;;;12.53;9.18;;;;;;;1.24;100.00;98100.69;1757638;81;20872;-61
2022/01/14 02:07:33;;;;;;;13.08;9.63;;;;;;;1.22;100.00;98096.16;1757637;80;21407;-63
2022/01/14 02:10:00;;;;;;;11.75;7.10;;;;;;;1.23;100.00;98082.42;1757597;81;20975;-61
2022/01/14 02:12:35;;;;;;;11.40;8.50;;;;;;;1.24;100.00;98074.80;1757754;80;21478;-71
2022/01/14 02:15:08;;;;;;;9.95;7.78;;;;;;;1.26;100.00;98076.19;1757281;80;21113;-62
2022/01/14 02:17:32;;;;;;;11.88;7.15;;;;;;;1.27;100.00;98068.54;1756869;80;20876;-66
2022/01/14 02:22:55;;;;;;;10.32;7.47;;;;;;;1.27;100.00;98054.03;1757695;81;20924;-60
2022/01/14 02:25:30;;;;;;;9.60;6.83;;;;;;;1.25;100.00;98057.41;1757630;81;20837;-69
2022/01/14 02:28:00;;;;;;;8.65;6.70;;;;;;;1.27;100.00;98054.03;1757616;81;21105;-64
2022/01/14 02:30:28;;;;;;;10.60;7.62;;;;;;;1.27;100.00;98057.20;1757519;81;20960;-62
2022/01/14 02:32:54;;;;;;;11.10;7.55;;;;;;;1.24;100.00;98054.50;1757597;81;20915;-65
2022/01/14 02:35:21;;;;;;;12.10;7.33;;;;;;;1.25;100.00;98071.92;1757581;81;20956;-63
2022/01/14 02:37:47;;;;;;;10.95;7.40;;;;;;;1.25;100.00;98049.50;1757614;81;21022;-62
2022/01/14 02:40:14;;;;;;;10.50;7.53;;;;;;;1.26;100.00;98046.35;1757559;79;21677;-64
2022/01/14 02:42:41;;;;;;;8.33;6.67;;;;;;;1.26;100.00;98024.73;1758666;81;20872;-67
2022/01/14 02:45:11;;;;;;;10.28;7.87;;;;;;;1.27;100.00;98030.28;1758021;81;20979;-65
2022/01/14 02:47:38;;;;;;;10.85;6.65;;;;;;;1.27;100.00;98032.92;1757563;80;20932;-64
2022/01/14 02:50:12;;;;;;;9.23;6.90;;;;;;;1.25;100.00;98029.70;1757704;81;21316;-63
2022/01/14 02:52:56;;;;;;;10.00;7.10;;;;;;;1.26;100.00;98048.48;1757591;80;21701;-63
2022/01/14 02:55:16;;;;;;;9.28;6.40;;;;;;;1.28;100.00;98034.53;1755965;81;21499;-70
2022/01/14 02:57:45;;;;;;;12.60;7.03;;;;;;;1.28;100.00;98017.38;1757635;80;20873;-69
2022/01/14 03:00:13;;;;;;;10.28;5.92;;;;;;;1.28;100.00;98026.62;1757840;81;20888;-63
2022/01/14 03:02:47;;;;;;;8.00;5.95;;;;;;;1.30;100.00;98017.95;1757674;80;21527;-68
2022/01/14 03:05:15;;;;;;;10.28;6.50;;;;;;;1.29;100.00;98032.20;1757532;80;21194;-69
2022/01/14 03:07:42;;;;;;;10.45;6.60;;;;;;;1.30;100.00;98021.10;1749204;81;20895;-62
2022/01/14 03:10:11;;;;;;;9.80;6.90;;;;;;;1.29;100.00;98028.23;1757588;81;20936;-66
2022/01/14 03:12:40;;;;;;;9.70;6.62;;;;;;;1.29;100.00;98026.92;1757465;81;20927;-70
2022/01/14 03:15:09;;;;;;;8.83;6.35;;;;;;;1.29;100.00;98016.88;1757677;81;20990;-71
2022/01/14 03:17:35;;;;;;;6.58;5.17;;;;;;;1.30;100.00;98010.03;1757677;80;21894;-68
2022/01/14 03:20:07;;;;;;;8.45;5.92;;;;;;;1.30;100.00;98016.63;1757498;80;20908;-69
2022/01/14 03:22:36;;;;;;;9.75;5.65;;;;;;;1.30;100.00;98021.91;1757453;80;20916;-61
2022/01/14 03:27:50;;;;;;;6.78;5.40;;;;;;;1.33;100.00;98000.86;1757593;81;20987;-66
2022/01/14 03:35:23;;;;;;;6.87;5.33;;;;;;;1.35;100.00;98002.23;1757423;81;20916;-70
2022/01/14 03:37:50;;;;;;;7.12;5.55;;;;;;;1.37;100.00;98009.39;1757651;81;21451;-60
2022/01/14 03:40:17;;;;;;;10.18;5.12;;;;;;;1.39;100.00;98010.48;1763931;80;21007;-60
2022/01/14 03:42:44;;;;;;;7.47;4.83;;;;;;;1.39;100.00;98006.00;1766673;81;21113;-62
2022/01/14 03:45:11;;;;;;;6.35;4.95;;;;;;;1.41;100.00;97999.70;1766665;81;20889;-61
2022/01/14 03:47:38;;;;;;;8.65;5.90;;;;;;;1.41;100.00;98003.67;1766804;81;20936;-69
2022/01/14 03:50:06;;;;;;;8.00;5.35;;;;;;;1.41;100.00;98004.47;1766704;81;20838;-66
2022/01/14 03:52:33;;;;;;;6.72;5.05;;;;;;;1.39;100.00;98006.00;1766831;81;21435;-59
2022/01/14 03:54:59;;;;;;;10.20;5.80;;;;;;;1.42;100.00;97988.09;1766615;81;21117;-69
2022/01/14 03:57:26;;;;;;;6.95;5.33;;;;;;;1.41;100.00;97981.23;1766662;81;21443;-70
2022/01/14 03:59:53;;;;;;;7.47;5.42;;;;;;;1.41;100.00;97990.47;1766759;81;20873;-65
2022/01/14 04:02:19;;;;;;;7.12;5.37;;;;;;;1.42;100.00;97984.14;1768040;81;20917;-65
2022/01/14 04:04:46;;;;;;;8.68;5.55;;;;;;;1.42;100.00;97972.27;1766755;81;20913;-70
2022/01/14 04:07:13;;;;;;;6.15;4.97;;;;;;;1.43;100.00;97950.13;1766616;81;21114;-63
2022/01/14 04:09:41;;;;;;;6.35;5.40;;;;;;;1.45;100.00;97970.48;1766754;80;20912;-70
2022/01/14 04:12:16;;;;;;;8.15;5.97;;;;;;;1.44;100.00;97968.90;1766711;81;20956;-68
2022/01/14 04:17:16;;;;;;;7.30;5.70;;;;;;;1.48;100.00;97958.16;1766774;81;20864;-68
2022/01/14 04:19:43;;;;;;;8.33;6.33;;;;;;;1.48;100.00;97959.47;1766965;81;21028;-60
2022/01/14 04:22:09;;;;;;;9.00;6.53;;;;;;;1.48;100.00;97955.52;1766734;80;21527;-60
2022/01/14 04:24:36;;;;;;;8.10;5.75;;;;;;;1.47;100.00;97950.74;1766705;81;20904;-62
2022/01/14 04:27:04;;;;;;;9.53;5.53;;;;;;;1.47;100.00;97925.67;1766671;81;20917;-60
2022/01/14 04:29:32;;;;;;;9.13;6.30;;;;;;;1.49;100.00;97941.27;1766907;81;21440;-71
2022/01/14 04:32:00;;;;;;;7.33;5.42;;;;;;;1.51;100.00;97935.26;1766705;80;21101;-69
2022/01/14 04:34:26;;;;;;;7.90;6.28;;;;;;;1.53;99.85;97917.34;1766827;81;20877;-67
2022/01/14 04:36:53;;;;;;;6.42;5.70;;;;;;;1.53;99.93;97906.78;1766902;81;21401;-60
2022/01/14 04:39:20;;;;;;;9.60;6.30;;;;;;;1.53;99.52;97916.02;1765097;80;20947;-60
2022/01/14 04:41:47;;;;;;;10.32;6.20;;;;;;;1.55;99.52;97909.48;1757491;81;21002;-63
2022/01/14 04:44:13;;;;;;;9.08;5.75;;;;;;;1.57;99.23;97898.67;1757528;81;21427;-63
2022/01/14 04:49:07;;;;;;;8.63;6.42;;;;;;;1.57;98.97;97892.07;1757660;80;21002;-67
2022/01/14 04:51:34;;;;;;;8.38;6.50;;;;;;;1.58;98.84;97877.84;1757654;81;20873;-69
2022/01/14 04:54:02;;;;;;;8.05;6.47;;;;;;;1.60;98.86;97879.19;1749169;81;20987;-64
2022/01/14 04:56:33;;;;;;;10.70;6.70;;;;;;;1.62;98.58;97867.09;1757658;81;21172;-60
2022/01/14 04:59:00;;;;;;;6.83;6.05;;;;;;;1.63;98.37;97873.95;1757586;81;20971;-63
2022/01/14 05:01:27;;;;;;;7.62;5.70;;;;;;;1.61;98.22;97878.67;1757643;80;20995;-64
2022/01/14 05:03:56;;;;;;;8.10;6.50;;;;;;;1.62;98.19;97878.97;1757626;81;20924;-64
2022/01/14 05:06:22;;;;;;;8.75;6.80;;;;;;;1.63;98.27;97876.59;1757776;80;20983;-67
2022/01/14 05:08:49;;;;;;;8.05;6.03;;;;;;;1.62;98.26;97864.45;1757646;81;21121;-71
2022/01/14 05:13:44;;;;;;;8.88;6.33;;;;;;;1.61;98.16;97871.56;1757678;81;20872;-63
2022/01/14 05:16:10;;;;;;;8.73;7.10;;;;;;;1.63;98.16;97870.00;1757636;81;21463;-61
2022/01/14 05:18:39;;;;;;;7.90;6.40;;;;;;;1.64;98.16;97853.13;1757785;80;21463;-59
2022/01/14 05:21:05;;;;;;;8.03;6.03;;;;;;;1.65;98.10;97852.88;1758357;81;21174;-54
2022/01/14 05:23:33;;;;;;;7.28;5.97;;;;;;;1.68;97.86;97860.85;1758153;81;20861;-68
2022/01/14 05:25:59;;;;;;;10.32;6.85;;;;;;;1.70;97.45;97841.61;1757647;81;21370;-61
2022/01/14 05:28:26;;;;;;;9.28;6.50;;;;;;;1.74;97.41;97833.52;1757822;81;20903;-69
2022/01/14 05:30:52;;;;;;;9.03;6.10;;;;;;;1.73;97.12;97845.11;1757673;81;20905;-69
2022/01/14 05:33:19;;;;;;;9.30;6.53;;;;;;;1.75;96.97;97845.66;1757649;81;21715;-70
2022/01/14 05:35:46;;;;;;;10.05;6.55;;;;;;;1.74;97.10;97855.97;1757576;80;20873;-62
2022/01/14 05:38:13;;;;;;;8.75;5.80;;;;;;;1.75;96.99;97845.66;1757598;81;20880;-64
2022/01/14 05:40:39;;;;;;;9.98;7.08;;;;;;;1.74;96.87;97836.16;1757518;80;21451;-68
2022/01/14 05:43:06;;;;;;;11.35;7.10;;;;;;;1.74;97.01;97843.56;1757636;80;20891;-68
2022/01/14 05:45:33;;;;;;;9.83;6.47;;;;;;;1.75;96.98;97839.06;1757619;81;21127;-67
2022/01/14 05:47:59;;;;;;;9.90;6.33;;;;;;;1.74;96.90;97820.31;1757565;81;20881;-67
2022/01/14 05:50:26;;;;;;;8.35;6.60;;;;;;;1.73;97.01;97837.19;1757637;81;21415;-70
2022/01/14 05:52:53;;;;;;;10.43;6.95;;;;;;;1.71;97.02;97827.38;1757600;81;20880;-70
2022/01/14 05:55:21;;;;;;;9.58;7.08;;;;;;;1.70;97.07;97823.13;1757636;81;20963;-66
2022/01/14 05:57:47;;;;;;;11.70;6.45;;;;;;;1.70;97.04;97807.28;1757601;81;21118;-63
2022/01/14 06:00:18;;;;;;;10.90;6.67;;;;;;;1.69;97.09;97826.83;1757557;81;21411;-61
2022/01/14 06:02:45;;;;;;;12.98;7.70;;;;;;;1.68;97.15;97828.66;1757588;81;20924;-66
2022/01/14 06:05:12;;;;;;;11.48;7.92;;;;;;;1.70;97.17;97832.37;1757838;81;20857;-63
2022/01/14 06:07:39;;;;;;;11.38;7.08;;;;;;;1.69;97.10;97825.50;1757639;81;20939;-66
2022/01/14 06:10:07;;;;;;;10.95;6.75;;;;;;;1.68;97.09;97843.17;1757808;80;21853;-59
2022/01/14 06:12:34;;;;;;;11.25;7.65;;;;;;;1.67;97.10;97825.72;1757541;81;21349;-60
2022/01/14 06:15:03;;;;;;;9.78;7.58;;;;;;;1.67;97.15;97824.95;1757564;81;20908;-61
2022/01/14 06:17:30;;;;;;;9.60;7.40;;;;;;;1.69;97.13;97813.63;1757688;81;21315;-66
2022/01/14 06:19:57;;;;;;;13.65;7.37;;;;;;;1.72;97.06;97827.68;1757618;80;21018;-68
2022/01/14 06:22:24;;;;;;;11.78;7.03;;;;;;;1.72;96.93;97819.76;1757449;81;21031;-69
2022/01/14 06:24:51;;;;;;;11.00;7.08;;;;;;;1.74;96.87;97832.20;1757537;81;21454;-68
2022/01/14 06:27:17;;;;;;;9.70;7.70;;;;;;;1.74;96.83;97822.44;1757759;81;21014;-69
2022/01/14 06:29:44;;;;;;;12.25;8.30;;;;;;;1.74;96.85;97820.31;1757449;80;20931;-64
2022/01/14 06:32:11;;;;;;;10.18;7.50;;;;;;;1.71;96.83;97829.51;1757595;81;21539;-62
2022/01/14 06:34:38;;;;;;;11.15;7.67;;;;;;;1.71;96.81;97822.91;1757587;80;21105;-67
2022/01/14 06:37:04;;;;;;;12.73;8.28;;;;;;;1.73;96.81;97802.86;1757418;80;20900;-61
2022/01/14 06:39:31;;;;;;;11.97;7.60;;;;;;;1.74;96.82;97807.11;1729293;82;21501;-62
2022/01/14 06:41:58;;;;;;;13.30;8.48;;;;;;;1.75;96.77;97810.83;1740772;82;20943;-64
2022/01/14 06:44:24;;;;;;;10.30;7.70;;;;;;;1.75;96.68;97802.09;1740919;82;20921;-66
2022/01/14 06:46:51;;;;;;;8.80;7.47;;;;;;;1.75;96.66;97801.58;1738267;82;21103;-61
2022/01/14 06:49:18;;;;;;;10.95;8.00;;;;;;;1.77;96.62;97798.69;1741082;82;20964;-60
2022/01/14 06:51:45;;;;;;;12.85;8.35;;;;;;;1.77;96.55;97793.41;1757565;81;20912;-67
2022/01/14 06:54:12;;;;;;;11.18;7.70;;;;;;;1.76;96.48;97798.43;1760741;80;20946;-65
2022/01/14 06:56:38;;;;;;;11.30;7.95;;;;;;;1.75;96.44;97788.89;1757770;81;21343;-70
2022/01/14 06:59:06;;;;;;;12.13;7.90;;;;;;;1.75;96.47;97770.41;1757542;81;21052;-68
2022/01/14 07:01:33;;;;;;;10.95;7.97;;;;;;;1.76;96.47;97779.95;1757606;81;20865;-70
2022/01/14 07:03:59;;;;;;;14.00;7.83;;;;;;;1.78;96.46;97776.54;1757421;81;21007;-64
2022/01/14 07:06:26;;;;;;;9.38;7.25;;;;;;;1.76;96.48;97787.87;1757536;80;20860;-60
2022/01/14 07:08:54;;;;;;;11.10;9.20;;;;;;;1.76;96.52;97776.79;1757516;81;20927;-65
2022/01/14 07:11:26;;;;;;;9.10;7.03;;;;;;;1.78;96.45;97782.63;1757517;81;21742;-65
2022/01/14 07:13:50;;;;;;;10.28;7.90;;;;;;;1.80;96.44;97792.94;1757392;81;20932;-61
2022/01/14 07:16:16;;;;;;;10.43;8.33;;;;;;;1.81;96.45;97792.73;1757627;81;20911;-61
2022/01/14 07:18:45;;;;;;;11.35;8.00;;;;;;;1.80;96.46;97781.06;1757553;80;21459;-59
2022/01/14 07:21:11;;;;;;;11.40;8.30;;;;;;;1.82;96.47;97767.90;1757569;81;20896;-61
2022/01/14 07:23:38;;;;;;;11.50;8.55;;;;;;;1.82;96.50;97772.38;1757300;81;21098;-66
2022/01/14 07:26:05;;;;;;;10.20;8.30;;;;;;;1.81;96.52;97770.79;1760489;80;21403;-67
2022/01/14 07:28:31;;;;;;;10.38;7.40;;;;;;;1.80;96.59;97771.81;1760835;80;20965;-65
2022/01/14 07:30:58;;;;;;;10.35;7.17;;;;;;;1.77;96.76;97794.22;1760392;80;20961;-66
2022/01/14 07:33:24;;;;;;;11.10;8.45;;;;;;;1.75;96.99;97773.05;1750843;81;21443;-64
2022/01/14 07:35:51;;;;;;;9.15;7.08;;;;;;;1.74;97.07;97765.67;1757840;81;21158;-66
2022/01/14 07:38:18;;;;;;;9.15;6.72;;;;;;;1.73;97.24;97752.69;1753337;81;20907;-70
2022/01/14 07:40:45;;;;;;;8.68;7.37;;;;;;;1.70;97.33;97769.80;1758630;80;21360;-72
2022/01/14 07:43:11;;;;;;;12.58;8.25;;;;;;;1.70;97.55;97755.80;1760447;81;20924;-69
2022/01/14 07:45:38;;;;;;;11.75;6.70;;;;;;;1.69;97.68;97764.77;1760468;81;20943;-61
2022/01/14 07:48:05;;;;;;;8.43;6.62;;;;;;;1.69;97.77;97748.42;1759693;81;21068;-62
2022/01/14 07:50:32;;;;;;;8.53;6.80;;;;;;;1.70;97.85;97742.59;1759575;81;21072;-72
2022/01/14 07:52:58;;;;;;;10.48;7.33;;;;;;;1.70;97.96;97754.48;1760207;81;21035;-70
2022/01/14 07:55:25;;;;;;;9.73;6.53;;;;;;;1.70;97.96;97750.52;1760518;81;20996;-67
2022/01/14 07:57:53;;;;;;;7.45;5.70;;;;;;;1.70;98.01;97762.40;1760123;81;21011;-61
2022/01/14 08:00:19;;;;;;;8.95;6.95;;;;;;;1.71;98.00;97735.77;1760493;81;21744;-68
2022/01/14 08:02:46;;;;;;;8.70;6.10;;;;;;;1.73;97.98;97735.52;1760956;81;20925;-55
2022/01/14 08:05:15;;;;;;;8.58;6.05;;;;;;;1.75;97.87;97729.48;1760886;81;20889;-61
2022/01/14 08:07:46;;;;;;;8.75;6.60;;;;;;;1.74;97.93;97712.05;1759361;81;21602;-60
2022/01/14 08:10:14;;;;;;;7.42;6.33;;;;;;;1.74;97.91;97702.81;1759404;81;20991;-65
2022/01/14 08:12:43;;;;;;;8.50;6.33;;;;;;;1.74;97.96;97698.84;1759540;81;21124;-62
2022/01/14 08:15:11;;;;;;;7.80;6.08;;;;;;;1.74;97.92;97690.92;1759686;81;21509;-68
2022/01/14 08:17:38;;;;;;;7.22;6.00;;;;;;;1.75;97.88;97684.59;1760386;81;21012;-66
2022/01/14 08:20:08;;;;;;;9.45;6.50;;;;;;;1.77;97.88;97685.14;1758317;81;21002;-59
2022/01/14 08:22:35;;;;;;;6.72;5.42;;;;;;;1.79;97.68;97668.56;1758888;81;21755;-68
2022/01/14 08:25:02;;;;;;;7.78;6.30;;;;;;;1.80;97.62;97672.27;1759982;81;21114;-63
2022/01/14 08:27:29;;;;;;;9.30;6.28;;;;;;;1.84;97.51;97667.29;1760147;81;21021;-62
2022/01/14 08:29:56;;;;;;;6.60;5.50;;;;;;;1.85;97.37;97657.83;1759942;81;21051;-61
2022/01/14 08:32:22;;;;;;;6.65;5.12;;;;;;;1.87;97.31;97636.44;1760282;81;21039;-62
2022/01/14 08:34:51;;;;;;;7.80;5.33;;;;;;;1.89;97.27;97634.36;1760884;81;20975;-62
2022/01/14 08:37:18;;;;;;;7.75;5.20;;;;;;;1.91;97.20;97628.30;1760519;81;21133;-68
2022/01/14 08:40:05;;;;;;;15.38;5.00;;;;;;;1.93;97.07;97618.32;1750224;78;21459;-65
2022/01/14 08:42:33;;;;;;;7.65;4.75;;;;;;;1.96;96.99;97631.83;1737594;82;20955;-71
2022/01/14 08:45:01;;;;;;;6.05;4.70;;;;;;;2.00;96.89;97648.00;1750849;82;21029;-63
2022/01/14 08:47:29;;;;;;;5.42;4.47;;;;;;;2.02;96.49;97651.19;1745413;80;21449;-63
2022/01/14 08:49:57;;;;;;;8.30;5.08;;;;;;;2.05;96.35;97664.70;1738079;82;21101;-70
2022/01/14 08:52:25;;;;;;;6.37;5.17;;;;;;;2.05;96.19;97648.84;1742478;80;21456;-63
2022/01/14 08:54:52;;;;;;;6.33;5.10;;;;;;;2.06;96.20;97641.21;1732786;80;21021;-61
2022/01/14 08:57:19;;;;;;;9.03;4.85;;;;;;;2.06;96.13;97657.58;1759715;80;21014;-61
2022/01/14 08:59:48;;;;;;;7.08;4.85;;;;;;;2.08;96.05;97632.52;1763115;80;20984;-63
2022/01/14 09:02:14;;;;;;;7.25;4.92;;;;;;;2.10;95.90;97645.47;1760636;80;21106;-66
2022/01/14 09:04:41;;;;;;;8.55;5.60;;;;;;;2.13;95.89;97626.50;1741271;80;20963;-69
2022/01/14 09:07:08;;;;;;;6.92;4.58;;;;;;;2.14;95.82;97637.87;1750432;80;21489;-71
2022/01/14 09:09:35;;;;;;;7.03;4.72;;;;;;;2.14;95.69;97616.22;1732345;82;21082;-69
2022/01/14 09:12:04;;;;;;;9.23;5.10;;;;;;;2.14;95.60;97610.94;1738150;81;20871;-64
2022/01/14 09:14:31;;;;;;;7.12;4.75;;;;;;;2.13;95.71;97578.94;1770908;80;21858;-62
2022/01/14 09:16:59;;;;;;;5.75;4.70;;;;;;;2.11;95.75;97606.13;1782496;80;20990;-63
2022/01/14 09:19:25;;;;;;;7.85;5.28;;;;;;;2.12;95.82;97587.89;1782360;80;20891;-66
2022/01/14 09:21:52;;;;;;;9.60;5.05;;;;;;;2.11;95.89;97621.98;1782344;80;21431;-61
2022/01/14 09:24:19;;;;;;;6.72;5.03;;;;;;;2.09;95.98;97601.62;1768985;80;21022;-59
2022/01/14 09:26:46;;;;;;;5.75;4.62;;;;;;;2.06;96.11;97582.28;1735425;82;21201;-69
2022/01/14 09:29:13;;;;;;;7.97;5.33;;;;;;;2.05;96.32;97607.09;1745177;82;20943;-64
2022/01/14 09:31:41;;;;;;;6.78;5.30;;;;;;;2.06;96.39;97579.13;1721537;82;20976;-61
2022/01/14 09:34:10;;;;;;;8.80;4.90;;;;;;;2.10;96.41;97603.20;1722530;82;21466;-61
2022/01/14 09:36:37;;;;;;;7.42;4.65;;;;;;;2.12;96.42;97591.08;1735756;80;21031;-63
2022/01/14 09:39:04;;;;;;;7.60;5.80;;;;;;;2.14;96.41;97594.28;1727562;80;21111;-62
2022/01/14 09:41:30;;;;;;;8.15;5.50;;;;;;;2.12;96.49;97587.89;1731967;81;20947;-66
2022/01/14 09:43:57;;;;;;;8.88;4.72;;;;;;;2.13;96.47;97575.48;1742522;81;21608;-68
2022/01/14 09:46:24;;;;;;;6.35;4.78;;;;;;;2.12;96.58;97582.61;1740915;81;20880;-68
2022/01/14 09:48:51;;;;;;;6.55;5.00;;;;;;;2.12;96.74;97583.16;1724076;82;20911;-61
2022/01/14 09:51:18;;;;;;;5.65;4.62;;;;;;;2.12;96.75;97576.00;1735592;81;21494;-65
2022/01/14 09:53:46;;;;;;;7.92;4.92;;;;;;;2.13;96.84;97571.02;1734232;81;20998;-69
2022/01/14 09:56:17;;;;;;;7.95;4.80;;;;;;;2.11;96.87;97570.47;1751398;80;21443;-60
2022/01/14 09:58:47;;;;;;;8.40;5.28;;;;;;;2.12;96.99;97574.69;1749848;80;20984;-70
2022/01/14 10:01:23;;;;;;;6.67;5.20;;;;;;;2.10;96.97;97564.89;1746603;80;20963;-61
2022/01/14 10:04:01;;;;;;;6.58;4.70;;;;;;;2.10;97.03;97572.81;1734967;81;21097;-66
2022/01/14 10:06:41;;;;;;;7.25;5.25;;;;;;;2.11;97.25;97566.50;1739108;80;20911;-60
2022/01/14 10:09:22;;;;;;;7.08;5.83;;;;;;;2.11;97.29;97557.77;1740792;81;21148;-62
2022/01/14 10:12:16;;;;;;;7.08;5.00;;;;;;;2.09;97.45;97556.70;1726685;81;21002;-69
2022/01/14 10:15:01;;;;;;;6.58;5.08;;;;;;;2.08;97.47;97552.45;1743368;81;21019;-63
2022/01/14 10:17:43;;;;;;;5.80;5.15;;;;;;;2.06;97.60;97545.30;1729430;81;21529;-64
2022/01/14 10:20:14;;;;;;;8.98;5.30;;;;;;;2.06;97.69;97553.23;1737920;81;20955;-64
2022/01/14 10:22:47;;;;;;;6.28;4.53;;;;;;;2.06;97.74;97541.34;1735407;81;21016;-61
2022/01/14 10:25:19;;;;;;;6.30;4.83;;;;;;;2.07;97.81;97564.86;1728885;81;20919;-63
2022/01/14 10:27:51;;;;;;;7.67;5.22;;;;;;;2.08;97.91;97560.38;1741459;81;21312;-64
2022/01/14 10:30:31;;;;;;;7.62;4.92;;;;;;;2.08;97.91;97548.48;1746404;81;21118;-64
2022/01/14 10:33:07;;;;;;;8.93;4.75;;;;;;;2.06;97.98;97516.23;1753934;81;20955;-61
2022/01/14 10:35:42;;;;;;;6.40;4.92;;;;;;;2.06;98.03;97520.20;1748077;81;20950;-62
2022/01/14 10:38:11;;;;;;;6.85;5.47;;;;;;;2.05;98.12;97524.69;1751718;81;20947;-62
2022/01/14 10:40:48;;;;;;;6.30;4.80;;;;;;;2.03;98.36;97506.16;1740103;81;21041;-64
2022/01/14 10:43:21;;;;;;;7.62;5.10;;;;;;;2.04;98.39;97494.56;1746646;81;21537;-65
2022/01/14 10:45:48;;;;;;;6.92;5.22;;;;;;;2.02;98.64;97503.26;1737755;81;20900;-63
2022/01/14 10:48:32;;;;;;;5.80;4.87;;;;;;;2.00;98.77;97489.51;1755280;81;20939;-62
2022/01/14 10:51:05;;;;;;;6.35;4.55;;;;;;;2.00;98.97;97499.52;1724129;80;21006;-67
2022/01/14 10:53:51;;;;;;;7.42;4.75;;;;;;;2.00;99.15;97495.56;1745927;81;20955;-61
2022/01/14 10:56:20;;;;;;;6.30;5.22;;;;;;;1.99;99.29;97515.11;1734569;81;21089;-60
2022/01/14 10:58:50;;;;;;;6.90;5.15;;;;;;;1.99;99.52;97508.52;1752550;81;21040;-70
2022/01/14 11:01:21;;;;;;;5.22;4.72;;;;;;;2.01;99.49;97509.58;1738437;81;21441;-67
2022/01/14 11:03:56;;;;;;;5.70;4.80;;;;;;;2.02;99.65;97531.00;1731303;81;20998;-71
2022/01/14 11:06:35;;;;;;;6.00;4.62;;;;;;;2.03;99.86;97488.98;1744922;81;20994;-68
2022/01/14 11:11:51;;;;;;;6.17;4.47;;;;;;;2.05;99.97;97475.00;1760806;80;20915;-60
2022/01/14 11:14:19;;;;;;;7.50;5.85;;;;;;;2.06;99.94;97444.91;1734179;81;42105;-65
2022/01/14 11:16:48;;;;;;;5.87;4.65;;;;;;;2.06;100.00;97455.48;1743706;81;21090;-62
2022/01/14 11:19:14;;;;;;;9.23;4.33;;;;;;;2.10;100.00;97442.04;1735572;81;20934;-67
2022/01/14 11:24:31;;;;;;;8.13;5.20;;;;;;;2.11;100.00;97426.99;1731686;81;21431;-70
2022/01/14 11:27:05;;;;;;;7.08;4.72;;;;;;;2.13;100.00;97427.02;1737507;81;21054;-69
2022/01/14 11:29:40;;;;;;;6.40;4.12;;;;;;;2.13;100.00;97399.28;1743868;81;21451;-62
2022/01/14 11:32:09;;;;;;;6.15;4.35;;;;;;;2.15;100.00;97420.95;1741609;81;20966;-71
2022/01/14 11:34:42;;;;;;;6.45;4.75;;;;;;;2.19;100.00;97419.95;1753601;80;21076;-60
2022/01/14 11:37:30;;;;;;;7.90;4.75;;;;;;;2.21;100.00;97413.37;1746889;81;20990;-64
2022/01/14 11:40:05;;;;;;;6.62;4.17;;;;;;;2.24;100.00;97418.13;1742851;80;21284;-61
2022/01/14 11:42:47;;;;;;;5.90;4.15;;;;;;;2.28;99.94;97395.98;1731677;82;20899;-68
2022/01/14 11:45:20;;;;;;;5.20;3.77;;;;;;;2.29;99.98;97387.79;1743727;80;20959;-68
2022/01/14 11:47:51;;;;;;;6.45;3.80;;;;;;;2.30;99.66;97393.36;1751295;81;20998;-71
2022/01/14 11:50:27;;;;;;;5.75;3.80;;;;;;;2.31;99.77;97371.16;1738238;82;20990;-61
2022/01/14 11:52:58;;;;;;;6.83;4.58;;;;;;;2.31;99.83;97365.87;1721701;83;20911;-62
2022/01/14 11:55:35;;;;;;;6.85;3.87;;;;;;;2.33;99.84;97345.81;1721416;83;21507;-60
2022/01/14 11:58:07;;;;;;;4.28;3.67;;;;;;;2.35;99.82;97349.00;1723683;82;21002;-63
2022/01/14 12:00:41;;;;;;;6.53;4.15;;;;;;;2.37;99.68;97339.77;1726681;82;21046;-72
2022/01/14 12:03:25;;;;;;;6.37;3.87;;;;;;;2.37;99.73;97344.25;1744327;82;21545;-64
2022/01/14 12:05:54;;;;;;;5.12;3.52;;;;;;;2.36;99.72;97320.17;1720971;83;20883;-69
2022/01/14 12:08:34;;;;;;;6.00;3.10;;;;;;;2.32;99.78;97323.06;1721827;83;20983;-59
2022/01/14 12:11:14;;;;;;;3.77;2.95;;;;;;;2.28;99.87;97313.55;1722620;83;20994;-67
2022/01/14 12:14:05;;;;;;;5.67;3.67;;;;;;;2.28;100.00;97302.97;1721657;83;21117;-68
2022/01/14 12:19:05;;;;;;;4.95;3.42;;;;;;;2.29;100.00;97300.58;1721555;82;20976;-68
2022/01/14 12:21:48;;;;;;;4.47;3.35;;;;;;;2.30;100.00;97303.51;1747848;82;20958;-68